createdAt,value
2017-07-24T00:00:16.363Z,5.65
2017-07-24T00:02:43.911Z,4.65
2017-07-24T00:05:11.471Z,4.75
2017-07-24T00:07:39.144Z,4.40
2017-07-24T00:15:53.079Z,4.78
2017-07-24T00:18:20.636Z,5.62
2017-07-24T00:20:48.192Z,5.05
2017-07-24T00:23:15.914Z,5.25
2017-07-24T00:25:43.477Z,5.55
2017-07-24T00:28:11.031Z,5.30
2017-07-24T00:30:38.704Z,5.03
2017-07-24T00:33:06.255Z,5.62
2017-07-24T00:35:33.804Z,5.62
2017-07-24T00:38:01.544Z,5.20
2017-07-24T00:40:29.087Z,5.50
2017-07-24T00:42:56.636Z,5.70
2017-07-24T00:45:24.204Z,5.40
2017-07-24T00:47:51.747Z,5.07
2017-07-24T00:50:19.319Z,5.57
2017-07-24T00:52:46.883Z,5.18
2017-07-24T00:55:14.431Z,5.97
2017-07-24T00:57:41.975Z,5.60
2017-07-24T01:00:09.688Z,6.12
2017-07-24T01:02:38.007Z,5.20
2017-07-24T01:05:05.560Z,5.55
2017-07-24T01:07:33.458Z,6.22
2017-07-24T01:10:01.005Z,5.22
2017-07-24T01:12:28.556Z,5.15
2017-07-24T01:14:56.270Z,5.87
2017-07-24T01:17:23.842Z,5.65
2017-07-24T01:19:51.389Z,5.90
2017-07-24T01:22:19.867Z,5.28
2017-07-24T01:24:48.167Z,5.32
2017-07-24T01:27:15.710Z,6.12
2017-07-24T01:29:43.315Z,5.62
2017-07-24T01:32:10.867Z,4.75
2017-07-24T01:34:38.411Z,6.03
2017-07-24T01:37:06.088Z,5.80
2017-07-24T01:39:33.644Z,5.65
2017-07-24T01:42:01.218Z,6.00
2017-07-24T01:44:28.927Z,5.72
2017-07-24T01:46:57.241Z,5.65
2017-07-24T01:49:24.814Z,6.30
2017-07-24T01:51:52.387Z,6.40
2017-07-24T01:54:19.942Z,5.68
2017-07-24T01:56:47.498Z,5.70
2017-07-24T01:59:15.222Z,5.95
2017-07-24T02:01:42.759Z,6.22
2017-07-24T02:04:10.303Z,5.90
2017-07-24T02:06:37.980Z,6.15
2017-07-24T02:09:05.522Z,7.60
2017-07-24T02:11:33.067Z,6.80
2017-07-24T02:14:00.821Z,5.70
2017-07-24T02:16:28.410Z,6.22
2017-07-24T02:18:55.964Z,5.82
2017-07-24T02:21:23.542Z,6.60
2017-07-24T02:23:51.103Z,6.72
2017-07-24T02:26:19.419Z,6.20
2017-07-24T02:28:47.003Z,6.45
2017-07-24T02:31:14.547Z,7.37
2017-07-24T02:33:42.090Z,6.90
2017-07-24T02:36:09.818Z,6.15
2017-07-24T02:38:38.133Z,5.72
2017-07-24T02:41:05.676Z,6.37
2017-07-24T02:43:33.263Z,6.68
2017-07-24T02:46:00.807Z,6.70
2017-07-24T02:48:28.352Z,6.60
2017-07-24T02:50:56.046Z,7.12
2017-07-24T02:53:23.589Z,7.95
2017-07-24T02:55:51.126Z,7.03
2017-07-24T02:58:18.705Z,6.70
2017-07-24T03:00:46.239Z,6.20
2017-07-24T03:03:13.799Z,6.60
2017-07-24T03:05:41.476Z,6.43
2017-07-24T03:08:09.034Z,7.07
2017-07-24T03:10:36.595Z,6.65
2017-07-24T03:13:04.496Z,7.28
2017-07-24T03:15:32.902Z,6.65
2017-07-24T03:18:00.443Z,7.50
2017-07-24T03:20:28.157Z,6.70
2017-07-24T03:22:55.705Z,6.65
2017-07-24T03:25:23.262Z,6.97
2017-07-24T03:27:50.863Z,7.57
2017-07-24T03:30:18.438Z,8.23
2017-07-24T03:32:45.993Z,7.82
2017-07-24T03:35:13.700Z,8.07
2017-07-24T03:37:41.242Z,7.62
2017-07-24T03:40:09.579Z,7.28
2017-07-24T03:42:37.296Z,7.40
2017-07-24T03:45:04.840Z,8.00
2017-07-24T03:47:33.163Z,8.82
2017-07-24T03:50:00.734Z,8.82
2017-07-24T03:52:28.296Z,8.18
2017-07-24T03:54:55.840Z,7.22
2017-07-24T03:57:23.584Z,8.20
2017-07-24T03:59:51.128Z,8.25
2017-07-24T04:02:19.447Z,8.32
2017-07-24T04:04:47.023Z,8.30
2017-07-24T04:07:14.567Z,8.38
2017-07-24T04:09:42.115Z,7.75
2017-07-24T04:12:09.860Z,8.73
2017-07-24T04:14:37.411Z,8.13
2017-07-24T04:17:04.951Z,9.40
2017-07-24T04:19:33.435Z,9.82
2017-07-24T04:22:01.767Z,9.48
2017-07-24T04:24:29.347Z,9.55
2017-07-24T04:26:57.079Z,8.55
2017-07-24T04:29:24.645Z,9.48
2017-07-24T04:31:52.205Z,9.52
2017-07-24T04:34:19.929Z,8.73
2017-07-24T04:36:47.482Z,9.60
2017-07-24T04:39:15.796Z,9.43
2017-07-24T04:41:43.512Z,8.48
2017-07-24T04:44:11.090Z,8.63
2017-07-24T04:46:38.654Z,9.20
2017-07-24T04:49:06.244Z,8.05
2017-07-24T04:51:33.798Z,9.35
2017-07-24T04:54:01.355Z,8.00
2017-07-24T04:56:29.045Z,9.00
2017-07-24T04:58:56.594Z,8.15
2017-07-24T05:01:24.176Z,7.60
2017-07-24T05:03:51.911Z,8.05
2017-07-24T05:06:19.483Z,8.38
2017-07-24T05:08:47.034Z,8.45
2017-07-24T05:11:14.886Z,7.78
2017-07-24T05:13:42.431Z,8.70
2017-07-24T05:16:09.978Z,9.00
2017-07-24T05:18:37.898Z,7.82
2017-07-24T05:21:05.442Z,9.07
2017-07-24T05:23:32.988Z,8.52
2017-07-24T05:26:00.592Z,6.87
2017-07-24T05:28:28.910Z,7.80
2017-07-24T05:30:56.490Z,7.68
2017-07-24T05:33:24.103Z,8.07
2017-07-24T05:35:51.659Z,8.18
2017-07-24T05:38:19.976Z,7.22
2017-07-24T05:40:47.555Z,7.65
2017-07-24T05:43:15.112Z,7.40
2017-07-24T05:45:42.660Z,7.90
2017-07-24T05:48:12.550Z,7.40
2017-07-24T05:50:40.090Z,8.63
2017-07-24T05:53:07.646Z,6.93
2017-07-24T05:55:36.317Z,7.68
2017-07-24T05:58:03.871Z,5.78
2017-07-24T06:00:31.431Z,5.72
2017-07-24T06:02:59.398Z,7.47
2017-07-24T06:05:26.963Z,7.05
2017-07-24T06:07:54.517Z,6.72
2017-07-24T06:10:22.370Z,6.55
2017-07-24T06:12:49.915Z,7.12
2017-07-24T06:15:17.462Z,6.28
2017-07-24T06:17:45.049Z,7.85
2017-07-24T06:20:12.609Z,6.95
2017-07-24T06:22:40.164Z,6.53
2017-07-24T06:25:07.765Z,7.03
2017-07-24T06:27:35.327Z,6.22
2017-07-24T06:30:02.883Z,6.03
2017-07-24T06:32:30.459Z,6.15
2017-07-24T06:34:58.015Z,5.72
2017-07-24T06:37:25.632Z,5.40
2017-07-24T06:39:53.216Z,5.32
2017-07-24T06:42:20.776Z,5.05
2017-07-24T06:44:49.102Z,5.55
2017-07-24T06:47:16.890Z,5.10
2017-07-24T06:49:44.452Z,5.05
2017-07-24T06:52:12.009Z,3.80
2017-07-24T06:54:39.974Z,4.72
2017-07-24T06:57:07.575Z,4.60
2017-07-24T06:59:35.127Z,4.25
2017-07-24T07:02:03.489Z,4.83
2017-07-24T07:04:31.807Z,4.57
2017-07-24T07:06:59.383Z,5.20
2017-07-24T07:09:27.177Z,4.10
2017-07-24T07:11:54.764Z,3.70
2017-07-24T07:14:23.071Z,4.60
2017-07-24T07:16:51.189Z,3.10
2017-07-24T07:19:18.744Z,4.13
2017-07-24T07:21:46.309Z,3.60
2017-07-24T07:24:13.883Z,3.17
2017-07-24T07:26:41.452Z,3.37
2017-07-24T07:29:09.803Z,3.10
2017-07-24T07:31:37.547Z,2.80
2017-07-24T07:34:05.091Z,3.10
2017-07-24T07:36:32.638Z,3.10
2017-07-24T07:39:00.255Z,3.33
2017-07-24T07:41:27.802Z,3.23
2017-07-24T07:43:55.481Z,3.17
2017-07-24T07:46:23.091Z,3.03
2017-07-24T07:48:50.635Z,2.20
2017-07-24T07:51:18.187Z,2.87
2017-07-24T07:53:46.382Z,2.50
2017-07-24T07:56:13.967Z,2.53
2017-07-24T07:58:41.516Z,3.23
2017-07-24T08:01:09.119Z,3.37
2017-07-24T08:03:36.675Z,3.50
2017-07-24T08:06:04.236Z,3.00
2017-07-24T08:08:32.755Z,3.47
2017-07-24T08:11:00.315Z,3.30
2017-07-24T08:13:27.912Z,2.90
2017-07-24T08:15:55.494Z,2.67
2017-07-24T08:18:23.075Z,2.20
2017-07-24T08:20:50.633Z,2.37
2017-07-24T08:23:18.364Z,2.30
2017-07-24T08:25:46.684Z,2.80
2017-07-24T08:28:14.226Z,2.20
2017-07-24T08:30:41.823Z,2.07
2017-07-24T08:33:09.415Z,2.00
2017-07-24T08:38:11.187Z,3.17
2017-07-24T08:40:38.736Z,2.27
2017-07-24T08:43:06.289Z,2.50
2017-07-24T08:45:33.895Z,2.40
2017-07-24T08:48:01.498Z,3.27
2017-07-24T08:50:29.051Z,3.40
2017-07-24T08:52:56.630Z,2.47
2017-07-24T08:55:24.187Z,2.60
2017-07-24T08:57:51.741Z,2.00
2017-07-24T09:00:19.524Z,1.70
2017-07-24T09:02:47.079Z,2.37
2017-07-24T09:05:15.112Z,2.30
2017-07-24T09:07:42.713Z,2.20
2017-07-24T09:10:10.286Z,2.17
2017-07-24T09:12:38.606Z,2.10
2017-07-24T09:15:06.317Z,1.90
2017-07-24T09:17:34.652Z,1.90
2017-07-24T09:20:02.203Z,1.90
2017-07-24T09:22:29.882Z,1.60
2017-07-24T09:24:57.440Z,1.70
2017-07-24T09:27:24.987Z,1.60
2017-07-24T09:29:52.892Z,1.57
2017-07-24T09:32:20.444Z,1.70
2017-07-24T09:34:47.983Z,1.60
2017-07-24T09:37:15.886Z,2.10
2017-07-24T09:39:43.434Z,1.67
2017-07-24T09:42:10.987Z,2.37
2017-07-24T09:44:38.860Z,1.53
2017-07-24T09:47:06.406Z,2.20
2017-07-24T09:49:33.952Z,1.87
2017-07-24T09:52:01.672Z,1.70
2017-07-24T09:54:29.219Z,1.60
2017-07-24T09:56:57.535Z,1.50
2017-07-24T09:59:25.284Z,1.53
2017-07-24T10:01:52.835Z,1.80
2017-07-24T10:04:20.395Z,1.70
2017-07-24T10:06:48.188Z,1.97
2017-07-24T10:09:15.736Z,1.90
2017-07-24T10:11:43.296Z,2.17
2017-07-24T10:14:11.267Z,1.90
2017-07-24T10:16:38.815Z,2.00
2017-07-24T10:19:06.372Z,1.87
2017-07-24T10:21:34.204Z,1.90
2017-07-24T10:24:01.760Z,1.90
2017-07-24T10:26:29.358Z,2.10
2017-07-24T10:28:57.387Z,2.40
2017-07-24T10:33:59.167Z,1.87
2017-07-24T10:36:26.711Z,2.00
2017-07-24T10:38:54.262Z,1.63
2017-07-24T10:41:21.877Z,2.43
2017-07-24T10:43:49.426Z,2.17
2017-07-24T10:46:17.756Z,2.23
2017-07-24T10:48:45.334Z,2.10
2017-07-24T10:51:12.894Z,1.63
2017-07-24T10:53:40.446Z,1.93
2017-07-24T10:56:08.396Z,1.70
2017-07-24T10:58:35.956Z,1.90
2017-07-24T11:01:03.516Z,1.47
2017-07-24T11:03:31.312Z,1.90
2017-07-24T11:05:58.865Z,1.53
2017-07-24T11:08:26.416Z,1.53
2017-07-24T11:10:54.188Z,1.70
2017-07-24T11:13:21.735Z,1.57
2017-07-24T11:15:49.280Z,1.60
2017-07-24T11:18:16.983Z,2.00
2017-07-24T11:20:44.545Z,1.90
2017-07-24T11:23:12.874Z,1.37
2017-07-24T11:25:40.762Z,2.13
2017-07-24T11:28:08.326Z,2.33
2017-07-24T11:30:35.870Z,1.90
2017-07-24T11:33:03.446Z,2.17
2017-07-24T11:35:31.005Z,2.17
2017-07-24T11:37:58.567Z,1.97
2017-07-24T11:40:26.180Z,2.23
2017-07-24T11:42:53.724Z,1.90
2017-07-24T11:45:21.281Z,2.90
2017-07-24T11:47:49.072Z,2.10
2017-07-24T11:50:16.633Z,1.90
2017-07-24T11:52:44.179Z,2.00
2017-07-24T11:55:11.786Z,1.90
2017-07-24T11:57:39.365Z,2.23
2017-07-24T12:00:07.697Z,1.73
2017-07-24T12:02:35.299Z,1.90
2017-07-24T12:05:02.856Z,2.20
2017-07-24T12:07:31.175Z,1.80
2017-07-24T12:09:59.093Z,2.13
2017-07-24T12:12:26.679Z,2.60
2017-07-24T12:14:54.271Z,2.23
2017-07-24T12:17:21.983Z,2.27
2017-07-24T12:19:49.549Z,1.93
2017-07-24T12:22:17.108Z,1.97
2017-07-24T12:24:45.487Z,1.73
2017-07-24T12:27:13.051Z,2.40
2017-07-24T12:29:46.590Z,1.97
2017-07-24T12:32:14.150Z,2.30
2017-07-24T12:34:41.697Z,2.13
2017-07-24T12:37:09.439Z,1.80
2017-07-24T12:39:37.132Z,2.50
2017-07-24T12:42:04.696Z,1.80
2017-07-24T12:44:32.707Z,1.40
2017-07-24T12:47:01.037Z,1.87
2017-07-24T12:49:28.616Z,2.40
2017-07-24T12:51:56.219Z,1.80
2017-07-24T12:54:23.783Z,2.03
2017-07-24T12:56:51.344Z,1.63
2017-07-24T12:59:18.966Z,2.23
2017-07-24T13:01:46.525Z,3.00
2017-07-24T13:04:14.104Z,2.17
2017-07-24T13:06:41.826Z,2.00
2017-07-24T13:09:09.380Z,1.80
2017-07-24T13:11:36.998Z,2.27
2017-07-24T13:14:04.842Z,2.37
2017-07-24T13:16:32.476Z,1.60
2017-07-24T13:19:00.024Z,1.53
2017-07-24T13:21:27.700Z,1.57
2017-07-24T13:23:55.265Z,2.40
2017-07-24T13:26:22.819Z,2.37
2017-07-24T13:28:50.422Z,2.10
2017-07-24T13:31:18.735Z,2.10
2017-07-24T13:33:46.294Z,2.10
2017-07-24T13:36:14.306Z,2.77
2017-07-24T13:38:41.852Z,2.33
2017-07-24T13:41:09.448Z,2.80
2017-07-24T13:43:38.021Z,3.00
2017-07-24T13:46:06.342Z,2.73
2017-07-24T13:48:33.892Z,2.53
2017-07-24T13:51:01.472Z,3.10
2017-07-24T13:53:29.034Z,3.60
2017-07-24T13:55:56.580Z,2.77
2017-07-24T13:58:24.167Z,2.70
2017-07-24T14:00:51.727Z,3.23
2017-07-24T14:03:19.268Z,3.17
2017-07-24T14:05:47.171Z,2.93
2017-07-24T14:08:14.724Z,3.07
2017-07-24T14:10:42.291Z,3.37
2017-07-24T14:13:09.930Z,3.33
2017-07-24T14:15:37.475Z,2.93
2017-07-24T14:18:05.022Z,3.00
2017-07-24T14:20:32.836Z,3.23
2017-07-24T14:23:00.407Z,2.93
2017-07-24T14:25:27.972Z,4.13
2017-07-24T14:27:56.611Z,3.50
2017-07-24T14:30:24.174Z,3.30
2017-07-24T14:32:51.734Z,3.13
2017-07-24T14:35:19.339Z,3.23
2017-07-24T14:37:47.651Z,3.63
2017-07-24T14:40:15.211Z,3.50
2017-07-24T14:42:43.107Z,3.07
2017-07-24T14:45:10.878Z,3.00
2017-07-24T14:47:38.427Z,4.30
2017-07-24T14:50:06.109Z,3.73
2017-07-24T14:52:33.700Z,3.67
2017-07-24T14:55:01.556Z,3.90
2017-07-24T14:57:29.300Z,4.40
2017-07-24T14:59:56.925Z,3.57
2017-07-24T15:02:24.493Z,4.60
2017-07-24T15:04:52.080Z,4.87
2017-07-24T15:07:19.732Z,4.03
2017-07-24T15:09:47.361Z,4.30
2017-07-24T15:12:14.979Z,4.23
2017-07-24T15:14:42.539Z,4.30
2017-07-24T15:17:10.091Z,5.30
2017-07-24T15:19:38.559Z,10.53
2017-07-24T15:22:06.126Z,5.37
2017-07-24T15:24:34.452Z,5.03
2017-07-24T15:27:02.062Z,4.57
2017-07-24T15:29:30.388Z,4.80
2017-07-24T15:31:57.948Z,5.40
2017-07-24T15:34:25.560Z,5.53
2017-07-24T15:36:53.888Z,5.17
2017-07-24T15:39:21.440Z,6.47
2017-07-24T15:41:49.262Z,6.70
2017-07-24T15:44:17.591Z,6.30
2017-07-24T15:46:45.155Z,7.30
2017-07-24T15:49:13.164Z,6.55
2017-07-24T15:51:41.483Z,7.30
2017-07-24T15:54:09.059Z,6.60
2017-07-24T15:56:36.685Z,8.70
2017-07-24T15:59:04.250Z,10.13
2017-07-24T16:01:31.803Z,8.35
2017-07-24T16:03:59.423Z,9.98
2017-07-24T16:06:26.984Z,8.90
2017-07-24T16:08:54.540Z,13.20
2017-07-24T16:11:22.423Z,21.05
2017-07-24T16:13:49.987Z,17.50
2017-07-24T16:16:18.308Z,19.12
2017-07-24T16:18:46.016Z,21.08
2017-07-24T16:21:15.490Z,22.10
2017-07-24T16:23:43.044Z,23.87
2017-07-24T16:26:10.948Z,25.60
2017-07-24T16:28:38.504Z,20.40
2017-07-24T16:31:06.067Z,21.75
2017-07-24T16:33:34.035Z,21.60
2017-07-24T16:36:01.592Z,21.52
2017-07-24T16:38:29.171Z,21.33
2017-07-24T16:40:56.763Z,22.02
2017-07-24T16:43:24.316Z,21.40
2017-07-24T16:45:51.870Z,17.73
2017-07-24T16:48:19.661Z,19.70
2017-07-24T16:50:47.223Z,20.83
2017-07-24T16:53:14.775Z,21.65
2017-07-24T16:55:42.537Z,23.10
2017-07-24T16:58:10.410Z,24.87
2017-07-24T17:00:37.960Z,23.60
2017-07-24T17:03:05.805Z,25.40
2017-07-24T17:05:33.420Z,27.33
2017-07-24T17:08:00.979Z,22.75
2017-07-24T17:10:28.675Z,23.10
2017-07-24T17:12:57.001Z,22.25
2017-07-24T17:15:24.596Z,21.92
2017-07-24T17:17:52.336Z,24.77
2017-07-24T17:20:19.891Z,23.20
2017-07-24T17:22:47.451Z,26.02
2017-07-24T17:25:15.752Z,25.35
2017-07-24T17:27:43.298Z,26.27
2017-07-24T17:30:10.865Z,25.90
2017-07-24T17:32:38.472Z,25.02
2017-07-24T17:35:06.040Z,25.35
2017-07-24T17:37:33.652Z,24.23
2017-07-24T17:40:01.374Z,24.15
2017-07-24T17:42:28.935Z,22.65
2017-07-24T17:44:56.533Z,22.35
2017-07-24T17:47:24.401Z,22.60
2017-07-24T17:49:52.012Z,22.33
2017-07-24T17:52:19.572Z,21.62
2017-07-24T17:54:47.158Z,20.67
2017-07-24T17:57:14.725Z,20.17
2017-07-24T17:59:42.304Z,19.85
2017-07-24T18:02:09.922Z,19.00
2017-07-24T18:04:37.670Z,18.02
2017-07-24T18:07:05.280Z,18.90
2017-07-24T18:09:33.761Z,21.42
2017-07-24T18:12:02.084Z,21.10
2017-07-24T18:14:29.649Z,22.40
2017-07-24T18:16:57.558Z,22.33
2017-07-24T18:19:25.132Z,23.25
2017-07-24T18:21:53.466Z,22.17
2017-07-24T18:24:21.212Z,22.55
2017-07-24T18:26:48.763Z,21.55
2017-07-24T18:29:16.319Z,21.08
2017-07-24T18:31:44.063Z,21.55
2017-07-24T18:34:11.631Z,21.33
2017-07-24T18:36:39.183Z,20.58
2017-07-24T18:39:06.928Z,19.65
2017-07-24T18:41:34.528Z,21.00
2017-07-24T18:44:02.096Z,22.10
2017-07-24T18:46:29.772Z,24.00
2017-07-24T18:48:57.334Z,23.05
2017-07-24T18:51:24.925Z,20.90
2017-07-24T18:53:52.627Z,20.05
2017-07-24T18:56:20.196Z,20.08
2017-07-24T18:58:47.751Z,19.75
2017-07-24T19:01:15.331Z,21.23
2017-07-24T19:03:42.912Z,20.30
2017-07-24T19:06:10.468Z,19.15
2017-07-24T19:08:38.256Z,19.65
2017-07-24T19:11:05.856Z,18.00
2017-07-24T19:13:33.426Z,19.95
2017-07-24T19:16:01.371Z,19.40
2017-07-24T19:18:29.624Z,20.33
2017-07-24T19:20:57.952Z,21.35
2017-07-24T19:23:25.867Z,21.12
2017-07-24T19:25:54.226Z,19.87
2017-07-24T19:28:21.804Z,22.80
2017-07-24T19:30:51.069Z,21.35
2017-07-24T19:33:18.637Z,18.75
2017-07-24T19:35:46.241Z,19.40
2017-07-24T19:38:14.072Z,20.98
2017-07-24T19:40:41.645Z,19.52
2017-07-24T19:43:10.057Z,20.95
2017-07-24T19:45:37.978Z,22.50
2017-07-24T19:48:05.550Z,20.75
2017-07-24T19:50:33.971Z,22.20
2017-07-24T19:53:01.559Z,19.58
2017-07-24T19:55:29.340Z,21.48
2017-07-24T19:57:57.772Z,19.92
2017-07-24T20:00:25.687Z,21.60
2017-07-24T20:02:53.463Z,20.52
2017-07-24T20:05:21.042Z,21.15
2017-07-24T20:07:48.798Z,20.40
2017-07-24T20:10:16.407Z,18.95
2017-07-24T20:12:47.260Z,17.05
2017-07-24T20:15:17.298Z,17.80
2017-07-24T20:17:45.169Z,17.85
2017-07-24T20:20:13.505Z,17.48
2017-07-24T20:22:41.286Z,17.20
2017-07-24T20:25:08.922Z,18.37
2017-07-24T20:27:36.514Z,17.12
2017-07-24T20:30:04.112Z,17.70
2017-07-24T20:32:31.715Z,18.73
2017-07-24T20:34:59.288Z,18.75
2017-07-24T20:37:28.204Z,19.83
2017-07-24T20:39:56.528Z,18.25
2017-07-24T20:42:24.148Z,20.45
2017-07-24T20:44:51.832Z,19.27
2017-07-24T20:47:20.222Z,20.12
2017-07-24T20:49:47.807Z,20.75
2017-07-24T20:52:15.481Z,20.45
2017-07-24T20:54:43.047Z,19.87
2017-07-24T20:57:10.599Z,19.60
2017-07-24T20:59:38.339Z,21.92
2017-07-24T21:02:05.893Z,21.02
2017-07-24T21:04:33.450Z,22.65
2017-07-24T21:07:01.167Z,22.40
2017-07-24T21:09:28.833Z,21.65
2017-07-24T21:11:56.451Z,20.90
2017-07-24T21:14:24.488Z,19.37
2017-07-24T21:16:52.078Z,20.55
2017-07-24T21:19:19.633Z,20.98
2017-07-24T21:21:47.251Z,23.20
2017-07-24T21:24:15.579Z,21.27
2017-07-24T21:26:43.156Z,23.10
2017-07-24T21:29:10.903Z,22.45
2017-07-24T21:31:38.451Z,21.50
2017-07-24T21:34:06.003Z,21.48
2017-07-24T21:36:33.792Z,21.65
2017-07-24T21:39:01.351Z,22.45
2017-07-24T21:41:28.899Z,22.20
2017-07-24T21:43:56.551Z,22.15
2017-07-24T21:46:24.104Z,23.00
2017-07-24T21:48:51.671Z,22.50
2017-07-24T21:51:19.250Z,21.50
2017-07-24T21:53:46.807Z,21.52
2017-07-24T21:56:14.391Z,20.58
2017-07-24T21:58:42.353Z,20.73
2017-07-24T22:01:09.911Z,21.20
2017-07-24T22:03:37.475Z,20.00
2017-07-24T22:06:05.195Z,19.98
2017-07-24T22:08:32.762Z,21.12
2017-07-24T22:11:00.316Z,18.55
2017-07-24T22:13:28.034Z,20.70
2017-07-24T22:15:55.584Z,18.80
2017-07-24T22:18:23.135Z,21.42
2017-07-24T22:20:50.889Z,19.30
2017-07-24T22:23:18.453Z,20.00
2017-07-24T22:25:46.027Z,17.90
2017-07-24T22:28:14.708Z,17.87
2017-07-24T22:30:42.261Z,18.02
2017-07-24T22:33:09.814Z,17.48
2017-07-24T22:35:37.454Z,19.02
2017-07-24T22:38:05.002Z,17.65
2017-07-24T22:40:32.556Z,16.40
2017-07-24T22:43:00.283Z,18.70
2017-07-24T22:45:27.848Z,16.12
2017-07-24T22:47:55.405Z,14.95
2017-07-24T22:50:23.236Z,16.87
2017-07-24T22:52:50.810Z,15.20
2017-07-24T22:55:18.362Z,14.87
2017-07-24T22:57:45.944Z,14.85
2017-07-24T23:00:13.503Z,15.00
2017-07-24T23:02:41.820Z,15.68
2017-07-24T23:05:09.557Z,15.75
2017-07-24T23:07:37.108Z,16.23
2017-07-24T23:10:04.690Z,15.88
2017-07-24T23:12:32.427Z,15.65
2017-07-24T23:14:59.976Z,14.55
2017-07-24T23:17:27.527Z,16.23
2017-07-24T23:19:55.104Z,13.50
2017-07-24T23:22:22.665Z,13.70
2017-07-24T23:24:50.229Z,13.18
2017-07-24T23:27:18.262Z,13.07
2017-07-24T23:29:45.821Z,10.75
2017-07-24T23:32:13.376Z,13.40
2017-07-24T23:34:41.349Z,12.00
2017-07-24T23:37:08.941Z,10.88
2017-07-24T23:39:37.262Z,11.93
2017-07-24T23:42:04.939Z,11.05
2017-07-24T23:44:32.497Z,9.95
2017-07-24T23:47:00.052Z,11.25
2017-07-24T23:49:28.040Z,9.25
2017-07-24T23:51:55.632Z,11.77
2017-07-24T23:54:23.203Z,9.50
2017-07-24T23:56:50.791Z,10.18
2017-07-24T23:59:18.334Z,9.35
